sensor_id;sensor_type;location;lat;lon;timestamp;temperature;humidity
3912;DHT22;1971;51.778;10.330;2022-10-31T00:01:45;9.40;99.90
3912;DHT22;1971;51.778;10.330;2022-10-31T00:04:17;9.50;99.90
3912;DHT22;1971;51.778;10.330;2022-10-31T00:06:48;9.50;99.90
3912;DHT22;1971;51.778;10.330;2022-10-31T00:09:19;9.60;99.90
3912;DHT22;1971;51.778;10.330;2022-10-31T00:11:49;9.50;99.90
3912;DHT22;1971;51.778;10.330;2022-10-31T00:14:20;9.60;99.90
3912;DHT22;1971;51.778;10.330;2022-10-31T00:16:51;9.40;99.90
3912;DHT22;1971;51.778;10.330;2022-10-31T00:19:27;9.40;99.90
3912;DHT22;1971;51.778;10.330;2022-10-31T00:21:59;9.30;99.90
3912;DHT22;1971;51.778;10.330;2022-10-31T00:24:33;9.30;99.90
3912;DHT22;1971;51.778;10.330;2022-10-31T00:27:04;9.30;99.90
3912;DHT22;1971;51.778;10.330;2022-10-31T00:29:35;9.20;99.90
3912;DHT22;1971;51.778;10.330;2022-10-31T00:32:05;9.30;99.90
3912;DHT22;1971;51.778;10.330;2022-10-31T00:34:40;9.30;99.90
3912;DHT22;1971;51.778;10.330;2022-10-31T00:37:11;9.50;99.90
3912;DHT22;1971;51.778;10.330;2022-10-31T00:39:43;9.40;99.90
3912;DHT22;1971;51.778;10.330;2022-10-31T00:42:18;9.40;99.90
3912;DHT22;1971;51.778;10.330;2022-10-31T00:44:51;9.30;99.90
3912;DHT22;1971;51.778;10.330;2022-10-31T00:47:23;9.20;99.90
3912;DHT22;1971;51.778;10.330;2022-10-31T00:49:56;9.10;99.90
3912;DHT22;1971;51.778;10.330;2022-10-31T00:52:30;9.40;99.90
3912;DHT22;1971;51.778;10.330;2022-10-31T00:55:02;9.50;99.90
3912;DHT22;1971;51.778;10.330;2022-10-31T00:57:33;9.30;99.90
3912;DHT22;1971;51.778;10.330;2022-10-31T01:00:06;9.30;99.90
3912;DHT22;1971;51.778;10.330;2022-10-31T01:02:36;9.30;99.90
3912;DHT22;1971;51.778;10.330;2022-10-31T01:05:10;9.30;99.90
3912;DHT22;1971;51.778;10.330;2022-10-31T01:07:41;9.20;99.90
3912;DHT22;1971;51.778;10.330;2022-10-31T01:10:16;9.40;99.90
3912;DHT22;1971;51.778;10.330;2022-10-31T01:12:49;9.20;99.90
3912;DHT22;1971;51.778;10.330;2022-10-31T01:15:22;9.30;99.90
3912;DHT22;1971;51.778;10.330;2022-10-31T01:17:53;9.40;99.90
3912;DHT22;1971;51.778;10.330;2022-10-31T01:20:28;9.30;99.90
3912;DHT22;1971;51.778;10.330;2022-10-31T01:23:01;9.20;99.90
3912;DHT22;1971;51.778;10.330;2022-10-31T01:25:32;9.20;99.90
3912;DHT22;1971;51.778;10.330;2022-10-31T01:28:03;9.10;99.90
3912;DHT22;1971;51.778;10.330;2022-10-31T01:30:34;9.10;99.90
3912;DHT22;1971;51.778;10.330;2022-10-31T01:33:04;9.10;99.90
3912;DHT22;1971;51.778;10.330;2022-10-31T01:35:38;8.90;99.90
3912;DHT22;1971;51.778;10.330;2022-10-31T01:38:08;8.70;99.90
3912;DHT22;1971;51.778;10.330;2022-10-31T01:40:38;8.60;99.90
3912;DHT22;1971;51.778;10.330;2022-10-31T01:43:12;8.70;99.90
3912;DHT22;1971;51.778;10.330;2022-10-31T01:45:51;8.70;99.90
3912;DHT22;1971;51.778;10.330;2022-10-31T01:48:27;8.60;99.90
3912;DHT22;1971;51.778;10.330;2022-10-31T01:51:03;8.70;99.90
3912;DHT22;1971;51.778;10.330;2022-10-31T01:53:36;8.70;99.90
3912;DHT22;1971;51.778;10.330;2022-10-31T01:56:07;8.60;99.90
3912;DHT22;1971;51.778;10.330;2022-10-31T01:58:39;8.90;99.90
3912;DHT22;1971;51.778;10.330;2022-10-31T02:01:16;8.80;99.90
3912;DHT22;1971;51.778;10.330;2022-10-31T02:03:48;9.10;99.90
3912;DHT22;1971;51.778;10.330;2022-10-31T02:06:37;8.70;99.90
3912;DHT22;1971;51.778;10.330;2022-10-31T02:09:12;8.60;99.90
3912;DHT22;1971;51.778;10.330;2022-10-31T02:11:44;8.40;99.90
3912;DHT22;1971;51.778;10.330;2022-10-31T02:14:25;8.30;99.90
3912;DHT22;1971;51.778;10.330;2022-10-31T02:16:57;8.20;99.90
3912;DHT22;1971;51.778;10.330;2022-10-31T02:19:31;8.10;99.90
3912;DHT22;1971;51.778;10.330;2022-10-31T02:22:11;8.10;99.90
3912;DHT22;1971;51.778;10.330;2022-10-31T02:24:49;8.00;99.90
3912;DHT22;1971;51.778;10.330;2022-10-31T02:27:44;8.00;99.90
3912;DHT22;1971;51.778;10.330;2022-10-31T02:30:22;8.00;99.90
3912;DHT22;1971;51.778;10.330;2022-10-31T02:33:11;8.10;99.90
3912;DHT22;1971;51.778;10.330;2022-10-31T02:35:53;8.40;99.90
3912;DHT22;1971;51.778;10.330;2022-10-31T02:38:30;8.20;99.90
3912;DHT22;1971;51.778;10.330;2022-10-31T02:41:09;8.00;99.90
3912;DHT22;1971;51.778;10.330;2022-10-31T02:44:09;8.00;99.90
3912;DHT22;1971;51.778;10.330;2022-10-31T02:46:47;7.90;99.90
3912;DHT22;1971;51.778;10.330;2022-10-31T02:49:25;7.80;99.90
3912;DHT22;1971;51.778;10.330;2022-10-31T02:51:57;7.80;99.90
3912;DHT22;1971;51.778;10.330;2022-10-31T02:54:28;7.70;99.90
3912;DHT22;1971;51.778;10.330;2022-10-31T02:57:02;7.90;99.90
3912;DHT22;1971;51.778;10.330;2022-10-31T02:59:35;8.00;99.90
3912;DHT22;1971;51.778;10.330;2022-10-31T03:02:26;8.10;99.90
3912;DHT22;1971;51.778;10.330;2022-10-31T03:05:13;8.10;99.90
3912;DHT22;1971;51.778;10.330;2022-10-31T03:07:54;8.00;99.90
3912;DHT22;1971;51.778;10.330;2022-10-31T03:10:35;7.90;99.90
3912;DHT22;1971;51.778;10.330;2022-10-31T03:13:10;8.10;99.90
3912;DHT22;1971;51.778;10.330;2022-10-31T03:15:50;7.90;99.90
3912;DHT22;1971;51.778;10.330;2022-10-31T03:18:25;8.00;99.90
3912;DHT22;1971;51.778;10.330;2022-10-31T03:21:03;8.00;99.90
3912;DHT22;1971;51.778;10.330;2022-10-31T03:23:36;8.30;99.90
3912;DHT22;1971;51.778;10.330;2022-10-31T03:26:09;8.40;99.90
3912;DHT22;1971;51.778;10.330;2022-10-31T03:28:44;8.50;99.90
3912;DHT22;1971;51.778;10.330;2022-10-31T03:31:18;8.60;99.90
3912;DHT22;1971;51.778;10.330;2022-10-31T03:33:49;8.80;99.90
3912;DHT22;1971;51.778;10.330;2022-10-31T03:36:23;8.70;99.90
3912;DHT22;1971;51.778;10.330;2022-10-31T03:38:57;8.50;99.90
3912;DHT22;1971;51.778;10.330;2022-10-31T03:41:40;9.00;99.90
3912;DHT22;1971;51.778;10.330;2022-10-31T03:44:14;9.00;99.90
3912;DHT22;1971;51.778;10.330;2022-10-31T03:46:55;9.00;99.90
3912;DHT22;1971;51.778;10.330;2022-10-31T03:49:25;9.00;99.90
3912;DHT22;1971;51.778;10.330;2022-10-31T03:52:04;8.90;99.90
3912;DHT22;1971;51.778;10.330;2022-10-31T03:54:41;9.00;99.90
3912;DHT22;1971;51.778;10.330;2022-10-31T03:57:16;8.90;99.90
3912;DHT22;1971;51.778;10.330;2022-10-31T03:59:53;9.10;99.90
3912;DHT22;1971;51.778;10.330;2022-10-31T04:02:29;9.10;99.90
3912;DHT22;1971;51.778;10.330;2022-10-31T04:05:02;9.10;99.90
3912;DHT22;1971;51.778;10.330;2022-10-31T04:07:38;9.10;99.90
3912;DHT22;1971;51.778;10.330;2022-10-31T04:10:12;8.80;99.90
3912;DHT22;1971;51.778;10.330;2022-10-31T04:12:44;8.60;99.90
3912;DHT22;1971;51.778;10.330;2022-10-31T04:15:21;8.40;99.90
3912;DHT22;1971;51.778;10.330;2022-10-31T04:17:55;8.00;99.90
3912;DHT22;1971;51.778;10.330;2022-10-31T04:20:31;8.10;99.90
3912;DHT22;1971;51.778;10.330;2022-10-31T04:23:05;8.20;99.90
3912;DHT22;1971;51.778;10.330;2022-10-31T04:25:40;8.00;99.90
3912;DHT22;1971;51.778;10.330;2022-10-31T04:28:12;8.20;99.90
3912;DHT22;1971;51.778;10.330;2022-10-31T04:30:42;8.10;99.90
3912;DHT22;1971;51.778;10.330;2022-10-31T04:33:13;7.90;99.90
3912;DHT22;1971;51.778;10.330;2022-10-31T04:35:45;8.10;99.90
3912;DHT22;1971;51.778;10.330;2022-10-31T04:38:18;8.10;99.90
3912;DHT22;1971;51.778;10.330;2022-10-31T04:40:49;8.30;99.90
3912;DHT22;1971;51.778;10.330;2022-10-31T04:43:49;8.30;99.90
3912;DHT22;1971;51.778;10.330;2022-10-31T04:46:19;8.10;99.90
3912;DHT22;1971;51.778;10.330;2022-10-31T04:48:49;8.20;99.90
3912;DHT22;1971;51.778;10.330;2022-10-31T04:51:19;8.00;99.90
3912;DHT22;1971;51.778;10.330;2022-10-31T04:53:52;8.00;99.90
3912;DHT22;1971;51.778;10.330;2022-10-31T04:56:41;8.30;99.90
3912;DHT22;1971;51.778;10.330;2022-10-31T04:59:17;8.30;99.90
3912;DHT22;1971;51.778;10.330;2022-10-31T05:01:52;8.30;99.90
3912;DHT22;1971;51.778;10.330;2022-10-31T05:04:46;8.00;99.90
3912;DHT22;1971;51.778;10.330;2022-10-31T05:07:17;8.00;99.90
3912;DHT22;1971;51.778;10.330;2022-10-31T05:09:51;7.80;99.90
3912;DHT22;1971;51.778;10.330;2022-10-31T05:12:23;8.30;99.90
3912;DHT22;1971;51.778;10.330;2022-10-31T05:15:06;8.30;99.90
3912;DHT22;1971;51.778;10.330;2022-10-31T05:17:57;8.10;99.90
3912;DHT22;1971;51.778;10.330;2022-10-31T05:21:04;7.60;99.90
3912;DHT22;1971;51.778;10.330;2022-10-31T05:23:36;7.50;99.90
3912;DHT22;1971;51.778;10.330;2022-10-31T05:26:16;7.40;99.90
3912;DHT22;1971;51.778;10.330;2022-10-31T05:28:47;7.60;99.90
3912;DHT22;1971;51.778;10.330;2022-10-31T05:31:17;7.40;99.90
3912;DHT22;1971;51.778;10.330;2022-10-31T05:33:49;7.30;99.90
3912;DHT22;1971;51.778;10.330;2022-10-31T05:36:37;7.30;99.90
3912;DHT22;1971;51.778;10.330;2022-10-31T05:39:14;7.40;99.90
3912;DHT22;1971;51.778;10.330;2022-10-31T05:41:52;7.40;99.90
3912;DHT22;1971;51.778;10.330;2022-10-31T05:44:26;7.60;99.90
3912;DHT22;1971;51.778;10.330;2022-10-31T05:47:07;7.20;99.90
3912;DHT22;1971;51.778;10.330;2022-10-31T05:49:56;7.40;99.90
3912;DHT22;1971;51.778;10.330;2022-10-31T05:52:39;7.50;99.90
3912;DHT22;1971;51.778;10.330;2022-10-31T05:55:25;7.60;99.90
3912;DHT22;1971;51.778;10.330;2022-10-31T05:58:13;7.60;99.90
3912;DHT22;1971;51.778;10.330;2022-10-31T06:01:18;7.30;99.90
3912;DHT22;1971;51.778;10.330;2022-10-31T06:03:49;7.30;99.90
3912;DHT22;1971;51.778;10.330;2022-10-31T06:06:22;7.30;99.90
3912;DHT22;1971;51.778;10.330;2022-10-31T06:08:52;7.30;99.90
3912;DHT22;1971;51.778;10.330;2022-10-31T06:11:24;7.90;99.90
3912;DHT22;1971;51.778;10.330;2022-10-31T06:14:06;7.70;99.90
3912;DHT22;1971;51.778;10.330;2022-10-31T06:17:05;7.70;99.90
3912;DHT22;1971;51.778;10.330;2022-10-31T06:19:47;7.00;99.90
3912;DHT22;1971;51.778;10.330;2022-10-31T06:22:21;7.30;99.90
3912;DHT22;1971;51.778;10.330;2022-10-31T06:24:52;7.00;99.90
3912;DHT22;1971;51.778;10.330;2022-10-31T06:27:42;7.00;99.90
3912;DHT22;1971;51.778;10.330;2022-10-31T06:30:17;7.50;99.90
3912;DHT22;1971;51.778;10.330;2022-10-31T06:32:47;7.60;99.90
3912;DHT22;1971;51.778;10.330;2022-10-31T06:35:19;7.40;99.90
3912;DHT22;1971;51.778;10.330;2022-10-31T06:37:51;7.50;99.90
3912;DHT22;1971;51.778;10.330;2022-10-31T06:40:32;7.60;99.90
3912;DHT22;1971;51.778;10.330;2022-10-31T06:43:15;8.00;99.90
3912;DHT22;1971;51.778;10.330;2022-10-31T06:45:48;7.70;99.90
3912;DHT22;1971;51.778;10.330;2022-10-31T06:48:31;7.90;99.90
3912;DHT22;1971;51.778;10.330;2022-10-31T06:51:34;7.90;99.90
3912;DHT22;1971;51.778;10.330;2022-10-31T06:54:05;8.00;99.90
3912;DHT22;1971;51.778;10.330;2022-10-31T06:56:36;8.30;1.00
3912;DHT22;1971;51.778;10.330;2022-10-31T06:59:06;8.60;1.00
3912;DHT22;1971;51.778;10.330;2022-10-31T07:02:00;8.80;1.00
3912;DHT22;1971;51.778;10.330;2022-10-31T07:04:32;8.70;1.00
3912;DHT22;1971;51.778;10.330;2022-10-31T07:07:02;8.80;1.00
3912;DHT22;1971;51.778;10.330;2022-10-31T07:09:34;9.00;1.00
3912;DHT22;1971;51.778;10.330;2022-10-31T07:12:05;9.20;1.00
3912;DHT22;1971;51.778;10.330;2022-10-31T07:14:38;9.30;1.00
3912;DHT22;1971;51.778;10.330;2022-10-31T07:17:11;9.50;1.00
3912;DHT22;1971;51.778;10.330;2022-10-31T07:19:43;9.70;1.00
3912;DHT22;1971;51.778;10.330;2022-10-31T07:22:16;10.20;1.00
3912;DHT22;1971;51.778;10.330;2022-10-31T07:24:46;10.00;1.00
3912;DHT22;1971;51.778;10.330;2022-10-31T07:27:41;10.10;1.00
3912;DHT22;1971;51.778;10.330;2022-10-31T07:30:13;10.20;1.00
3912;DHT22;1971;51.778;10.330;2022-10-31T07:32:48;10.20;1.00
3912;DHT22;1971;51.778;10.330;2022-10-31T07:35:20;10.30;1.00
3912;DHT22;1971;51.778;10.330;2022-10-31T07:37:56;10.50;1.00
3912;DHT22;1971;51.778;10.330;2022-10-31T07:40:27;10.80;1.00
3912;DHT22;1971;51.778;10.330;2022-10-31T07:42:57;11.30;1.00
3912;DHT22;1971;51.778;10.330;2022-10-31T07:45:52;11.60;1.00
3912;DHT22;1971;51.778;10.330;2022-10-31T07:48:58;12.00;1.00
3912;DHT22;1971;51.778;10.330;2022-10-31T07:51:47;12.40;1.00
3912;DHT22;1971;51.778;10.330;2022-10-31T07:54:49;12.70;1.00
3912;DHT22;1971;51.778;10.330;2022-10-31T07:57:22;12.90;1.00
3912;DHT22;1971;51.778;10.330;2022-10-31T07:59:59;13.00;1.00
3912;DHT22;1971;51.778;10.330;2022-10-31T08:02:40;13.20;99.90
3912;DHT22;1971;51.778;10.330;2022-10-31T08:05:46;13.30;99.90
3912;DHT22;1971;51.778;10.330;2022-10-31T08:08:54;13.50;99.90
3912;DHT22;1971;51.778;10.330;2022-10-31T08:11:24;13.70;99.90
3912;DHT22;1971;51.778;10.330;2022-10-31T08:13:54;13.80;99.90
3912;DHT22;1971;51.778;10.330;2022-10-31T08:16:26;13.70;99.90
3912;DHT22;1971;51.778;10.330;2022-10-31T08:19:04;13.70;99.90
3912;DHT22;1971;51.778;10.330;2022-10-31T08:21:41;13.70;99.90
3912;DHT22;1971;51.778;10.330;2022-10-31T08:24:11;13.60;99.90
3912;DHT22;1971;51.778;10.330;2022-10-31T08:26:42;13.60;99.90
3912;DHT22;1971;51.778;10.330;2022-10-31T08:29:12;13.70;99.90
3912;DHT22;1971;51.778;10.330;2022-10-31T08:31:43;13.80;99.90
3912;DHT22;1971;51.778;10.330;2022-10-31T08:34:54;13.80;99.90
3912;DHT22;1971;51.778;10.330;2022-10-31T08:37:45;13.80;99.90
3912;DHT22;1971;51.778;10.330;2022-10-31T08:40:26;14.00;99.90
3912;DHT22;1971;51.778;10.330;2022-10-31T08:42:58;13.90;99.90
3912;DHT22;1971;51.778;10.330;2022-10-31T08:45:31;14.00;99.90
3912;DHT22;1971;51.778;10.330;2022-10-31T08:48:08;14.10;99.90
3912;DHT22;1971;51.778;10.330;2022-10-31T08:50:39;14.30;99.90
3912;DHT22;1971;51.778;10.330;2022-10-31T08:53:14;14.40;99.90
3912;DHT22;1971;51.778;10.330;2022-10-31T08:55:49;14.60;99.90
3912;DHT22;1971;51.778;10.330;2022-10-31T08:58:24;14.80;99.90
3912;DHT22;1971;51.778;10.330;2022-10-31T09:01:01;15.00;99.90
3912;DHT22;1971;51.778;10.330;2022-10-31T09:03:33;15.10;99.90
3912;DHT22;1971;51.778;10.330;2022-10-31T09:06:04;15.20;99.90
3912;DHT22;1971;51.778;10.330;2022-10-31T09:08:39;15.30;99.90
3912;DHT22;1971;51.778;10.330;2022-10-31T09:11:12;15.50;99.90
3912;DHT22;1971;51.778;10.330;2022-10-31T09:14:14;15.60;99.90
3912;DHT22;1971;51.778;10.330;2022-10-31T09:17:07;15.70;99.90
3912;DHT22;1971;51.778;10.330;2022-10-31T09:19:52;15.70;99.90
3912;DHT22;1971;51.778;10.330;2022-10-31T09:22:26;15.60;99.90
3912;DHT22;1971;51.778;10.330;2022-10-31T09:24:59;15.80;99.90
3912;DHT22;1971;51.778;10.330;2022-10-31T09:27:30;15.90;99.90
3912;DHT22;1971;51.778;10.330;2022-10-31T09:30:04;15.80;99.90
3912;DHT22;1971;51.778;10.330;2022-10-31T09:32:35;15.80;99.90
3912;DHT22;1971;51.778;10.330;2022-10-31T09:35:06;15.70;99.90
3912;DHT22;1971;51.778;10.330;2022-10-31T09:37:36;15.80;99.90
3912;DHT22;1971;51.778;10.330;2022-10-31T09:40:12;15.80;99.90
3912;DHT22;1971;51.778;10.330;2022-10-31T09:42:51;15.90;99.90
3912;DHT22;1971;51.778;10.330;2022-10-31T09:45:30;15.90;99.90
3912;DHT22;1971;51.778;10.330;2022-10-31T09:48:19;16.10;99.90
3912;DHT22;1971;51.778;10.330;2022-10-31T09:50:58;16.30;99.90
3912;DHT22;1971;51.778;10.330;2022-10-31T09:53:49;16.30;99.90
3912;DHT22;1971;51.778;10.330;2022-10-31T09:56:25;16.40;99.90
3912;DHT22;1971;51.778;10.330;2022-10-31T09:59:01;16.60;99.90
3912;DHT22;1971;51.778;10.330;2022-10-31T10:01:38;16.60;99.90
3912;DHT22;1971;51.778;10.330;2022-10-31T10:04:32;16.70;99.90
3912;DHT22;1971;51.778;10.330;2022-10-31T10:07:24;17.10;99.90
3912;DHT22;1971;51.778;10.330;2022-10-31T10:10:17;17.20;91.10
3912;DHT22;1971;51.778;10.330;2022-10-31T10:13:42;17.30;82.60
3912;DHT22;1971;51.778;10.330;2022-10-31T10:16:30;17.40;74.00
3912;DHT22;1971;51.778;10.330;2022-10-31T10:19:17;17.40;49.90
3912;DHT22;1971;51.778;10.330;2022-10-31T10:22:01;17.20;34.40
3912;DHT22;1971;51.778;10.330;2022-10-31T10:24:53;17.40;41.00
3912;DHT22;1971;51.778;10.330;2022-10-31T10:27:34;17.40;38.30
3912;DHT22;1971;51.778;10.330;2022-10-31T10:30:16;17.60;25.20
3912;DHT22;1971;51.778;10.330;2022-10-31T10:32:57;17.60;23.90
3912;DHT22;1971;51.778;10.330;2022-10-31T10:35:32;17.70;19.20
3912;DHT22;1971;51.778;10.330;2022-10-31T10:38:13;17.80;9.80
3912;DHT22;1971;51.778;10.330;2022-10-31T10:40:45;17.80;12.30
3912;DHT22;1971;51.778;10.330;2022-10-31T10:43:30;17.80;1.00
3912;DHT22;1971;51.778;10.330;2022-10-31T10:46:18;18.00;1.00
3912;DHT22;1971;51.778;10.330;2022-10-31T10:49:14;18.10;3.60
3912;DHT22;1971;51.778;10.330;2022-10-31T10:51:58;18.00;1.00
3912;DHT22;1971;51.778;10.330;2022-10-31T10:55:02;17.80;1.00
3912;DHT22;1971;51.778;10.330;2022-10-31T10:57:41;17.50;1.00
3912;DHT22;1971;51.778;10.330;2022-10-31T11:00:21;17.40;1.00
3912;DHT22;1971;51.778;10.330;2022-10-31T11:02:55;17.10;13.10
3912;DHT22;1971;51.778;10.330;2022-10-31T11:05:36;17.00;50.10
3912;DHT22;1971;51.778;10.330;2022-10-31T11:08:08;16.90;57.20
3912;DHT22;1971;51.778;10.330;2022-10-31T11:10:38;17.00;60.00
3912;DHT22;1971;51.778;10.330;2022-10-31T11:13:23;16.70;70.90
3912;DHT22;1971;51.778;10.330;2022-10-31T11:15:58;16.50;93.20
3912;DHT22;1971;51.778;10.330;2022-10-31T11:18:34;16.50;99.90
3912;DHT22;1971;51.778;10.330;2022-10-31T11:21:20;16.40;99.60
3912;DHT22;1971;51.778;10.330;2022-10-31T11:24:02;16.40;99.90
3912;DHT22;1971;51.778;10.330;2022-10-31T11:26:33;16.40;99.90
3912;DHT22;1971;51.778;10.330;2022-10-31T11:29:05;16.30;99.90
3912;DHT22;1971;51.778;10.330;2022-10-31T11:31:40;16.20;99.90
3912;DHT22;1971;51.778;10.330;2022-10-31T11:34:26;16.10;99.90
3912;DHT22;1971;51.778;10.330;2022-10-31T11:37:03;16.10;99.90
3912;DHT22;1971;51.778;10.330;2022-10-31T11:40:05;16.00;99.90
3912;DHT22;1971;51.778;10.330;2022-10-31T11:45:46;16.00;99.90
3912;DHT22;1971;51.778;10.330;2022-10-31T11:48:18;16.00;99.90
3912;DHT22;1971;51.778;10.330;2022-10-31T11:50:58;16.00;99.90
3912;DHT22;1971;51.778;10.330;2022-10-31T11:53:32;16.10;99.90
3912;DHT22;1971;51.778;10.330;2022-10-31T11:56:09;16.30;99.90
3912;DHT22;1971;51.778;10.330;2022-10-31T11:58:42;16.50;99.90
3912;DHT22;1971;51.778;10.330;2022-10-31T12:01:22;16.60;99.90
3912;DHT22;1971;51.778;10.330;2022-10-31T12:04:03;16.60;99.90
3912;DHT22;1971;51.778;10.330;2022-10-31T12:06:40;16.70;99.90
3912;DHT22;1971;51.778;10.330;2022-10-31T12:09:21;17.10;99.90
3912;DHT22;1971;51.778;10.330;2022-10-31T12:12:23;17.20;99.90
3912;DHT22;1971;51.778;10.330;2022-10-31T12:15:07;17.20;91.20
3912;DHT22;1971;51.778;10.330;2022-10-31T12:17:47;17.20;99.90
3912;DHT22;1971;51.778;10.330;2022-10-31T12:20:24;17.20;99.90
3912;DHT22;1971;51.778;10.330;2022-10-31T12:23:03;17.30;99.90
3912;DHT22;1971;51.778;10.330;2022-10-31T12:25:40;17.40;88.60
3912;DHT22;1971;51.778;10.330;2022-10-31T12:31:34;17.90;61.40
3912;DHT22;1971;51.778;10.330;2022-10-31T12:37:22;18.40;39.50
3912;DHT22;1971;51.778;10.330;2022-10-31T12:40:12;18.50;12.40
3912;DHT22;1971;51.778;10.330;2022-10-31T12:43:00;18.60;1.00
3912;DHT22;1971;51.778;10.330;2022-10-31T12:45:49;18.80;1.00
3912;DHT22;1971;51.778;10.330;2022-10-31T12:51:42;18.40;1.00
3912;DHT22;1971;51.778;10.330;2022-10-31T12:54:36;18.40;1.00
3912;DHT22;1971;51.778;10.330;2022-10-31T12:57:22;18.30;1.00
3912;DHT22;1971;51.778;10.330;2022-10-31T12:59:57;18.20;1.00
3912;DHT22;1971;51.778;10.330;2022-10-31T13:02:33;18.10;1.00
3912;DHT22;1971;51.778;10.330;2022-10-31T13:05:13;17.90;1.00
3912;DHT22;1971;51.778;10.330;2022-10-31T13:07:49;17.80;1.00
3912;DHT22;1971;51.778;10.330;2022-10-31T13:10:25;17.70;1.00
3912;DHT22;1971;51.778;10.330;2022-10-31T13:13:02;17.60;1.00
3912;DHT22;1971;51.778;10.330;2022-10-31T13:15:45;17.60;1.00
3912;DHT22;1971;51.778;10.330;2022-10-31T13:18:25;17.40;1.00
3912;DHT22;1971;51.778;10.330;2022-10-31T13:20:57;17.30;1.00
3912;DHT22;1971;51.778;10.330;2022-10-31T13:23:33;17.30;1.00
3912;DHT22;1971;51.778;10.330;2022-10-31T13:26:22;17.30;1.00
3912;DHT22;1971;51.778;10.330;2022-10-31T13:29:01;17.30;1.00
3912;DHT22;1971;51.778;10.330;2022-10-31T13:31:35;17.20;1.00
3912;DHT22;1971;51.778;10.330;2022-10-31T13:34:18;17.20;1.00
3912;DHT22;1971;51.778;10.330;2022-10-31T13:36:57;17.10;1.00
3912;DHT22;1971;51.778;10.330;2022-10-31T13:39:39;17.10;1.00
3912;DHT22;1971;51.778;10.330;2022-10-31T13:42:15;17.10;1.00
3912;DHT22;1971;51.778;10.330;2022-10-31T13:44:51;17.10;1.00
3912;DHT22;1971;51.778;10.330;2022-10-31T13:47:24;17.10;1.00
3912;DHT22;1971;51.778;10.330;2022-10-31T13:50:06;17.00;1.00
3912;DHT22;1971;51.778;10.330;2022-10-31T13:52:45;17.00;1.00
3912;DHT22;1971;51.778;10.330;2022-10-31T13:55:37;16.90;1.00
3912;DHT22;1971;51.778;10.330;2022-10-31T13:58:21;16.90;1.00
3912;DHT22;1971;51.778;10.330;2022-10-31T14:01:11;16.80;1.00
3912;DHT22;1971;51.778;10.330;2022-10-31T14:03:46;16.70;1.00
3912;DHT22;1971;51.778;10.330;2022-10-31T14:06:43;16.60;1.00
3912;DHT22;1971;51.778;10.330;2022-10-31T14:09:27;16.50;1.00
3912;DHT22;1971;51.778;10.330;2022-10-31T14:12:02;16.50;1.00
3912;DHT22;1971;51.778;10.330;2022-10-31T14:14:45;16.50;1.00
3912;DHT22;1971;51.778;10.330;2022-10-31T14:17:22;16.40;1.00
3912;DHT22;1971;51.778;10.330;2022-10-31T14:22:47;16.30;1.00
3912;DHT22;1971;51.778;10.330;2022-10-31T14:25:28;16.30;1.00
3912;DHT22;1971;51.778;10.330;2022-10-31T14:28:01;16.30;1.00
3912;DHT22;1971;51.778;10.330;2022-10-31T14:30:31;16.30;1.00
3912;DHT22;1971;51.778;10.330;2022-10-31T14:33:15;16.30;1.00
3912;DHT22;1971;51.778;10.330;2022-10-31T14:35:54;16.30;1.00
3912;DHT22;1971;51.778;10.330;2022-10-31T14:38:41;16.20;1.00
3912;DHT22;1971;51.778;10.330;2022-10-31T14:41:28;16.10;1.00
3912;DHT22;1971;51.778;10.330;2022-10-31T14:44:26;16.00;1.00
3912;DHT22;1971;51.778;10.330;2022-10-31T14:47:07;16.00;1.00
3912;DHT22;1971;51.778;10.330;2022-10-31T14:49:56;15.90;1.00
3912;DHT22;1971;51.778;10.330;2022-10-31T14:52:30;15.90;1.00
3912;DHT22;1971;51.778;10.330;2022-10-31T14:55:00;15.80;1.00
3912;DHT22;1971;51.778;10.330;2022-10-31T14:57:34;15.80;1.00
3912;DHT22;1971;51.778;10.330;2022-10-31T15:00:15;15.70;1.00
3912;DHT22;1971;51.778;10.330;2022-10-31T15:02:54;15.60;1.00
3912;DHT22;1971;51.778;10.330;2022-10-31T15:05:30;15.60;1.00
3912;DHT22;1971;51.778;10.330;2022-10-31T15:08:01;15.60;1.00
3912;DHT22;1971;51.778;10.330;2022-10-31T15:10:37;15.60;1.00
3912;DHT22;1971;51.778;10.330;2022-10-31T15:13:09;15.50;1.00
3912;DHT22;1971;51.778;10.330;2022-10-31T15:15:40;15.50;1.00
3912;DHT22;1971;51.778;10.330;2022-10-31T15:18:18;15.40;1.00
3912;DHT22;1971;51.778;10.330;2022-10-31T15:20:54;15.40;1.00
3912;DHT22;1971;51.778;10.330;2022-10-31T15:23:26;15.40;1.00
3912;DHT22;1971;51.778;10.330;2022-10-31T15:26:01;15.30;1.00
3912;DHT22;1971;51.778;10.330;2022-10-31T15:28:31;15.20;1.00
3912;DHT22;1971;51.778;10.330;2022-10-31T15:31:03;15.20;1.00
3912;DHT22;1971;51.778;10.330;2022-10-31T15:33:40;15.20;1.00
3912;DHT22;1971;51.778;10.330;2022-10-31T15:36:23;15.10;1.00
3912;DHT22;1971;51.778;10.330;2022-10-31T15:38:57;15.00;1.00
3912;DHT22;1971;51.778;10.330;2022-10-31T15:41:31;15.00;1.00
3912;DHT22;1971;51.778;10.330;2022-10-31T15:44:07;14.90;1.00
3912;DHT22;1971;51.778;10.330;2022-10-31T15:46:42;14.80;1.00
3912;DHT22;1971;51.778;10.330;2022-10-31T15:49:22;14.70;1.00
3912;DHT22;1971;51.778;10.330;2022-10-31T15:52:03;14.80;1.00
3912;DHT22;1971;51.778;10.330;2022-10-31T15:54:35;14.60;1.00
3912;DHT22;1971;51.778;10.330;2022-10-31T15:57:10;14.50;1.00
3912;DHT22;1971;51.778;10.330;2022-10-31T15:59:42;14.60;1.00
3912;DHT22;1971;51.778;10.330;2022-10-31T16:02:18;14.50;1.00
3912;DHT22;1971;51.778;10.330;2022-10-31T16:04:53;14.30;1.00
3912;DHT22;1971;51.778;10.330;2022-10-31T16:07:28;14.30;1.00
3912;DHT22;1971;51.778;10.330;2022-10-31T16:10:00;14.10;1.00
3912;DHT22;1971;51.778;10.330;2022-10-31T16:12:34;13.80;1.00
3912;DHT22;1971;51.778;10.330;2022-10-31T16:15:12;13.50;1.00
3912;DHT22;1971;51.778;10.330;2022-10-31T16:17:46;13.50;1.00
3912;DHT22;1971;51.778;10.330;2022-10-31T16:20:20;13.60;1.00
3912;DHT22;1971;51.778;10.330;2022-10-31T16:22:55;13.40;5.20
3912;DHT22;1971;51.778;10.330;2022-10-31T16:25:29;13.20;18.70
3912;DHT22;1971;51.778;10.330;2022-10-31T16:28:13;13.20;29.70
3912;DHT22;1971;51.778;10.330;2022-10-31T16:30:45;13.10;28.80
3912;DHT22;1971;51.778;10.330;2022-10-31T16:33:27;13.20;33.60
3912;DHT22;1971;51.778;10.330;2022-10-31T16:35:59;13.10;37.40
3912;DHT22;1971;51.778;10.330;2022-10-31T16:38:52;13.20;38.90
3912;DHT22;1971;51.778;10.330;2022-10-31T16:41:23;13.20;37.50
3912;DHT22;1971;51.778;10.330;2022-10-31T16:43:54;13.10;59.00
3912;DHT22;1971;51.778;10.330;2022-10-31T16:46:26;13.10;70.80
3912;DHT22;1971;51.778;10.330;2022-10-31T16:48:57;13.10;68.60
3912;DHT22;1971;51.778;10.330;2022-10-31T16:51:27;13.10;67.20
3912;DHT22;1971;51.778;10.330;2022-10-31T16:54:01;13.20;38.70
3912;DHT22;1971;51.778;10.330;2022-10-31T16:56:32;13.20;41.50
3912;DHT22;1971;51.778;10.330;2022-10-31T16:59:06;13.30;16.60
3912;DHT22;1971;51.778;10.330;2022-10-31T17:01:44;13.30;7.60
3912;DHT22;1971;51.778;10.330;2022-10-31T17:04:16;13.30;1.00
3912;DHT22;1971;51.778;10.330;2022-10-31T17:06:48;13.40;1.00
3912;DHT22;1971;51.778;10.330;2022-10-31T17:09:20;13.40;1.00
3912;DHT22;1971;51.778;10.330;2022-10-31T17:11:51;13.50;1.00
3912;DHT22;1971;51.778;10.330;2022-10-31T17:14:22;13.60;1.00
3912;DHT22;1971;51.778;10.330;2022-10-31T17:16:53;13.50;1.00
3912;DHT22;1971;51.778;10.330;2022-10-31T17:19:26;13.70;1.00
3912;DHT22;1971;51.778;10.330;2022-10-31T17:21:58;14.00;1.00